Time;durP1;ratioP1;P1;durP2;ratioP2;P2;SDS_P1;SDS_P2;PMS_P1;PMS_P2;Temp;Humidity;BMP_temperature;BMP_pressure;BME280_temperature;BME280_humidity;BME280_pressure;Samples;Min_cycle;Max_cycle;Signal;HPM_P1;HPM_P2
2023/01/20 00:02:00;;;;;;;60.47;24.45;;;;;;;-2.21;100.00;101112.50;5054817;28;20040;-80
2023/01/20 00:04:25;;;;;;;65.78;25.75;;;;;;;-2.22;100.00;101113.44;5053264;28;20040;-81
2023/01/20 00:06:50;;;;;;;66.50;25.52;;;;;;;-2.21;100.00;101115.97;5053051;28;20047;-81
2023/01/20 00:09:17;;;;;;;78.63;27.50;;;;;;;-2.18;100.00;101109.78;5054120;28;20048;-79
2023/01/20 00:11:43;;;;;;;78.63;25.70;;;;;;;-2.14;100.00;101111.41;5054461;28;20037;-81
2023/01/20 00:14:09;;;;;;;70.75;26.08;;;;;;;-2.14;100.00;101106.19;5053522;28;20029;-80
2023/01/20 00:16:35;;;;;;;68.03;26.65;;;;;;;-2.18;100.00;101113.28;5052770;28;20485;-82
2023/01/20 00:19:01;;;;;;;77.95;27.98;;;;;;;-2.23;100.00;101114.31;5054114;28;20060;-81
2023/01/20 00:21:26;;;;;;;75.13;28.10;;;;;;;-2.21;100.00;101120.31;5052607;28;20024;-81
2023/01/20 00:23:52;;;;;;;83.43;29.33;;;;;;;-2.21;100.00;101115.09;5054303;28;20476;-81
2023/01/20 00:26:20;;;;;;;75.97;29.35;;;;;;;-2.19;100.00;101122.00;5054014;28;20033;-81
2023/01/20 00:28:46;;;;;;;73.30;29.00;;;;;;;-2.17;100.00;101122.78;5052104;28;20040;-81
2023/01/20 00:31:20;;;;;;;84.38;28.55;;;;;;;-2.15;100.00;101110.56;5054045;28;20132;-81
2023/01/20 00:33:47;;;;;;;82.38;27.52;;;;;;;-2.17;100.00;101117.56;5054071;28;20106;-81
2023/01/20 00:36:14;;;;;;;72.07;26.63;;;;;;;-2.26;100.00;101115.25;5053797;28;20040;-81
2023/01/20 00:38:39;;;;;;;72.10;26.70;;;;;;;-2.34;100.00;101118.13;5053724;28;20037;-80
2023/01/20 00:41:05;;;;;;;66.15;26.13;;;;;;;-2.45;100.00;101115.00;5053472;28;20036;-81
2023/01/20 00:43:31;;;;;;;70.50;26.10;;;;;;;-2.57;100.00;101112.78;5053503;28;20120;-82
2023/01/20 00:45:57;;;;;;;55.15;23.00;;;;;;;-2.63;100.00;101118.19;5053572;28;20056;-82
2023/01/20 00:48:22;;;;;;;64.30;24.77;;;;;;;-2.74;100.00;101123.75;5053414;28;20500;-82
2023/01/20 00:50:48;;;;;;;63.00;25.23;;;;;;;-2.77;100.00;101126.44;5053785;28;20043;-81
2023/01/20 00:53:13;;;;;;;65.07;24.65;;;;;;;-2.78;100.00;101130.78;5051973;28;20033;-82
2023/01/20 00:55:39;;;;;;;61.13;23.63;;;;;;;-2.82;100.00;101131.78;5052923;28;20071;-82
2023/01/20 00:58:04;;;;;;;73.80;26.48;;;;;;;-2.85;100.00;101135.34;5053403;28;20389;-81
2023/01/20 01:00:29;;;;;;;74.20;25.98;;;;;;;-2.80;100.00;101131.75;5053592;28;20378;-83
2023/01/20 01:02:55;;;;;;;80.28;26.10;;;;;;;-2.75;100.00;101135.06;5053524;28;20119;-82
2023/01/20 01:05:21;;;;;;;78.78;26.48;;;;;;;-2.77;100.00;101132.50;5053545;28;20449;-82
2023/01/20 01:07:47;;;;;;;83.53;27.98;;;;;;;-2.78;100.00;101127.34;5053045;28;20477;-82
2023/01/20 01:10:12;;;;;;;75.70;26.08;;;;;;;-2.81;100.00;101141.28;5053182;28;20124;-82
2023/01/20 01:12:38;;;;;;;82.53;25.27;;;;;;;-2.87;100.00;101137.13;5053287;28;20384;-81
2023/01/20 01:15:03;;;;;;;84.65;27.00;;;;;;;-2.90;100.00;101149.38;5053360;28;20033;-82
2023/01/20 01:17:29;;;;;;;73.15;24.67;;;;;;;-2.90;100.00;101147.63;5053412;28;20124;-82
2023/01/20 01:19:54;;;;;;;60.45;23.58;;;;;;;-2.91;100.00;101148.53;5053375;28;20439;-82
2023/01/20 01:22:20;;;;;;;74.57;24.13;;;;;;;-2.91;100.00;101148.53;5052101;28;20498;-83
2023/01/20 01:24:46;;;;;;;56.83;22.48;;;;;;;-2.94;100.00;101150.38;5053376;28;20028;-83
2023/01/20 01:27:12;;;;;;;61.83;22.25;;;;;;;-2.98;100.00;101147.00;5053117;28;20033;-82
2023/01/20 01:29:38;;;;;;;72.13;22.92;;;;;;;-2.96;100.00;101149.56;5053529;28;20580;-82
2023/01/20 01:32:03;;;;;;;55.85;21.70;;;;;;;-2.95;100.00;101151.28;5052798;28;20496;-82
2023/01/20 01:34:29;;;;;;;69.25;25.30;;;;;;;-2.89;100.00;101154.56;5052933;28;20126;-82
2023/01/20 01:36:55;;;;;;;75.78;25.65;;;;;;;-2.79;100.00;101162.09;5052833;28;20037;-81
2023/01/20 01:39:20;;;;;;;84.10;24.83;;;;;;;-2.72;100.00;101161.84;5052501;28;20071;-81
2023/01/20 01:41:45;;;;;;;78.40;25.67;;;;;;;-2.59;100.00;101157.13;5052927;28;20397;-82
2023/01/20 01:44:13;;;;;;;83.25;25.75;;;;;;;-2.45;100.00;101164.50;5051647;28;20041;-82
2023/01/20 01:46:40;;;;;;;85.53;26.92;;;;;;;-2.35;100.00;101170.31;5052532;28;20536;-82
2023/01/20 01:49:29;;;;;;;75.50;25.42;;;;;;;-2.27;100.00;101165.69;5052752;28;20032;-81
2023/01/20 01:52:02;;;;;;;81.22;25.98;;;;;;;-2.18;100.00;101175.84;5053241;28;20036;-81
2023/01/20 01:54:33;;;;;;;86.40;25.90;;;;;;;-2.11;100.00;101173.03;5052709;28;20021;-81
2023/01/20 01:56:59;;;;;;;74.57;24.55;;;;;;;-2.02;100.00;101177.94;5052371;28;20031;-81
2023/01/20 01:59:25;;;;;;;75.05;24.45;;;;;;;-1.95;100.00;101179.47;5053281;28;20037;-82
2023/01/20 02:01:52;;;;;;;86.82;25.35;;;;;;;-1.93;100.00;101176.78;5052671;28;20083;-82
2023/01/20 02:04:26;;;;;;;72.65;24.75;;;;;;;-1.97;100.00;101173.41;5052788;28;20040;-82
2023/01/20 02:07:10;;;;;;;66.60;23.23;;;;;;;-2.01;100.00;101177.06;5052848;28;20025;-81
2023/01/20 02:09:36;;;;;;;71.22;22.85;;;;;;;-2.06;100.00;101177.22;5053039;28;20056;-81
2023/01/20 02:12:05;;;;;;;75.22;22.02;;;;;;;-2.11;100.00;101178.25;5053365;28;20087;-82
2023/01/20 02:14:35;;;;;;;81.13;23.65;;;;;;;-2.20;100.00;101174.19;5052320;28;20109;-80
2023/01/20 02:17:05;;;;;;;54.83;20.63;;;;;;;-2.26;100.00;101175.22;5053216;28;20033;-80
2023/01/20 02:20:04;;;;;;;57.20;19.05;;;;;;;-2.36;100.00;101179.00;5052848;28;20025;-82
2023/01/20 02:23:07;;;;;;;63.63;20.80;;;;;;;-2.42;100.00;101187.88;5053209;28;20431;-81
2023/01/20 02:25:42;;;;;;;61.17;21.15;;;;;;;-2.42;100.00;101179.22;5052313;28;20378;-81
2023/01/20 02:28:25;;;;;;;64.55;19.92;;;;;;;-2.41;100.00;101180.94;5052854;28;20036;-81
2023/01/20 02:31:09;;;;;;;68.40;22.48;;;;;;;-2.32;100.00;101170.22;5052467;28;20052;-81
2023/01/20 02:33:48;;;;;;;72.88;22.75;;;;;;;-2.25;100.00;101170.88;5052491;28;20040;-81
2023/01/20 02:36:26;;;;;;;70.93;21.23;;;;;;;-2.21;100.00;101169.84;5052929;28;20458;-80
2023/01/20 02:39:05;;;;;;;64.90;21.58;;;;;;;-2.13;100.00;101167.88;5055704;28;20029;-81
2023/01/20 02:41:52;;;;;;;67.28;20.73;;;;;;;-2.10;100.00;101174.75;5056460;28;20457;-81
2023/01/20 02:44:29;;;;;;;61.70;20.58;;;;;;;-2.08;100.00;101165.94;5056177;28;20093;-81
2023/01/20 02:47:16;;;;;;;60.03;20.10;;;;;;;-2.05;100.00;101173.69;5056233;28;20033;-80
2023/01/20 02:49:41;;;;;;;66.10;19.80;;;;;;;-2.03;100.00;101171.00;5056040;28;20204;-83
2023/01/20 02:52:15;;;;;;;63.17;21.23;;;;;;;-2.00;100.00;101169.19;5054395;28;20124;-81
2023/01/20 02:54:47;;;;;;;57.97;20.55;;;;;;;-1.96;100.00;101178.63;5055951;28;20423;-80
2023/01/20 02:57:17;;;;;;;58.20;20.13;;;;;;;-1.95;100.00;101175.09;5056014;28;20021;-80
2023/01/20 02:59:48;;;;;;;60.70;20.20;;;;;;;-1.91;100.00;101175.84;5056150;28;20032;-80
2023/01/20 03:02:19;;;;;;;57.85;21.10;;;;;;;-1.88;100.00;101172.25;5054235;28;20029;-80
2023/01/20 03:05:07;;;;;;;55.03;19.52;;;;;;;-1.86;100.00;101167.88;5055495;28;20485;-81
2023/01/20 03:07:36;;;;;;;53.83;19.13;;;;;;;-1.77;100.00;101173.63;5055049;28;20068;-81
2023/01/20 03:10:05;;;;;;;53.67;19.48;;;;;;;-1.74;100.00;101172.66;5054879;28;20053;-80
2023/01/20 03:12:44;;;;;;;53.17;19.60;;;;;;;-1.71;100.00;101169.09;5055763;28;20393;-81
2023/01/20 03:15:10;;;;;;;44.30;17.95;;;;;;;-1.70;100.00;101163.84;5055421;28;20147;-81
2023/01/20 03:17:36;;;;;;;51.17;19.40;;;;;;;-1.67;100.00;101168.06;5054993;28;20031;-81
2023/01/20 03:20:02;;;;;;;55.05;20.25;;;;;;;-1.63;100.00;101161.84;5055205;28;20033;-80
2023/01/20 03:22:29;;;;;;;55.97;20.73;;;;;;;-1.62;100.00;101159.19;5055293;28;20025;-80
2023/01/20 03:24:55;;;;;;;46.30;21.17;;;;;;;-1.56;100.00;101163.34;5053693;28;20043;-81
2023/01/20 03:27:21;;;;;;;50.90;19.83;;;;;;;-1.51;100.00;101158.81;5054836;28;20035;-80
2023/01/20 03:29:46;;;;;;;51.47;20.55;;;;;;;-1.48;100.00;101163.94;5054667;28;20033;-80
2023/01/20 03:32:13;;;;;;;47.25;19.88;;;;;;;-1.39;100.00;101157.53;5054714;28;20025;-81
2023/01/20 03:34:41;;;;;;;55.95;19.98;;;;;;;-1.33;100.00;101159.94;5054533;28;20463;-82
2023/01/20 03:37:08;;;;;;;50.28;19.85;;;;;;;-1.28;100.00;101165.84;5037078;28;20041;-81
2023/01/20 03:39:38;;;;;;;53.67;20.45;;;;;;;-1.24;100.00;101158.72;5054624;28;20025;-81
2023/01/20 03:42:12;;;;;;;43.78;18.67;;;;;;;-1.23;100.00;101160.44;5054875;28;20032;-80
2023/01/20 03:44:59;;;;;;;50.08;18.83;;;;;;;-1.23;100.00;101172.66;5054978;28;20045;-80
2023/01/20 03:47:39;;;;;;;47.80;19.85;;;;;;;-1.24;100.00;101166.56;5054930;28;20037;-81
2023/01/20 03:50:26;;;;;;;47.17;19.15;;;;;;;-1.20;100.00;101172.56;5053686;28;20119;-81
2023/01/20 03:53:08;;;;;;;42.13;18.50;;;;;;;-1.20;100.00;101162.09;5054644;28;20434;-80
2023/01/20 03:55:57;;;;;;;42.47;19.38;;;;;;;-1.21;100.00;101163.00;5054610;28;20147;-80
2023/01/20 03:58:28;;;;;;;44.45;19.38;;;;;;;-1.20;100.00;101173.41;5055136;28;20021;-79
2023/01/20 04:00:56;;;;;;;46.45;19.30;;;;;;;-1.21;100.00;101161.22;5053026;28;20032;-80
2023/01/20 04:03:30;;;;;;;49.47;19.77;;;;;;;-1.20;100.00;101165.56;5054446;28;20473;-79
2023/01/20 04:05:58;;;;;;;50.08;20.42;;;;;;;-1.17;100.00;101165.44;5054741;28;20060;-79
2023/01/20 04:08:29;;;;;;;53.60;20.38;;;;;;;-1.14;100.00;101170.56;5055178;28;20108;-80
2023/01/20 04:10:57;;;;;;;45.63;20.40;;;;;;;-1.11;100.00;101170.44;5052984;28;20497;-81
2023/01/20 04:13:23;;;;;;;46.13;19.73;;;;;;;-1.07;100.00;101173.81;5054534;28;20021;-80
2023/01/20 04:15:48;;;;;;;57.15;20.77;;;;;;;-1.05;100.00;101171.97;5054197;28;20351;-80
2023/01/20 04:18:17;;;;;;;49.42;19.70;;;;;;;-1.00;100.00;101163.97;5054967;28;20047;-80
2023/01/20 04:20:45;;;;;;;64.38;20.17;;;;;;;-1.00;100.00;101162.22;5054476;28;20024;-80
2023/01/20 04:23:17;;;;;;;51.75;21.17;;;;;;;-1.00;100.00;101159.63;5053777;28;20029;-81
2023/01/20 04:25:43;;;;;;;65.72;21.23;;;;;;;-0.99;100.00;101156.06;5054416;28;20039;-82
2023/01/20 04:28:08;;;;;;;50.78;20.90;;;;;;;-0.98;100.00;101170.00;5054201;28;20032;-80
2023/01/20 04:30:34;;;;;;;48.60;20.27;;;;;;;-0.97;100.00;101156.03;5053862;28;20047;-81
2023/01/20 04:32:59;;;;;;;55.97;20.58;;;;;;;-0.97;100.00;101161.25;5054233;28;20041;-81
2023/01/20 04:35:24;;;;;;;58.42;20.38;;;;;;;-0.95;100.00;101164.66;5053859;28;20040;-80
2023/01/20 04:37:50;;;;;;;61.20;21.92;;;;;;;-0.94;100.00;101164.63;5056915;28;20029;-81
2023/01/20 04:40:15;;;;;;;60.58;22.10;;;;;;;-0.93;100.00;101174.13;5061876;28;20112;-82
2023/01/20 04:42:41;;;;;;;59.28;22.25;;;;;;;-0.91;100.00;101168.84;5062873;28;20044;-81
2023/01/20 04:45:06;;;;;;;57.47;21.33;;;;;;;-0.88;100.00;101174.00;5055164;28;20041;-81
2023/01/20 04:47:32;;;;;;;68.80;22.73;;;;;;;-0.87;100.00;101180.91;5053727;28;20033;-81
2023/01/20 04:49:58;;;;;;;58.90;21.42;;;;;;;-0.85;100.00;101186.06;5053874;28;20597;-85
2023/01/20 04:52:23;;;;;;;57.72;22.48;;;;;;;-0.84;100.00;101190.38;5053805;28;20048;-82
2023/01/20 04:54:49;;;;;;;59.30;22.38;;;;;;;-0.83;100.00;101195.56;5053599;28;20036;-82
2023/01/20 04:57:14;;;;;;;61.05;22.65;;;;;;;-0.81;100.00;101204.19;5052369;28;20041;-82
2023/01/20 04:59:41;;;;;;;66.32;22.85;;;;;;;-0.79;100.00;101205.00;5053121;28;20039;-82
2023/01/20 05:02:06;;;;;;;65.35;22.88;;;;;;;-0.77;100.00;101207.53;5053715;28;20401;-83
2023/01/20 05:04:31;;;;;;;63.50;22.63;;;;;;;-0.75;100.00;101208.34;5052327;28;20064;-83
2023/01/20 05:06:57;;;;;;;61.70;22.00;;;;;;;-0.75;100.00;101217.03;5053582;28;20095;-82
2023/01/20 05:09:22;;;;;;;60.75;21.55;;;;;;;-0.77;100.00;101212.78;5053712;28;20115;-80
2023/01/20 05:11:47;;;;;;;58.80;20.90;;;;;;;-0.81;100.00;101212.03;5051769;28;20083;-82
2023/01/20 05:14:13;;;;;;;49.03;19.15;;;;;;;-0.87;100.00;101207.03;5052798;28;20029;-82
2023/01/20 05:16:38;;;;;;;47.83;18.58;;;;;;;-0.92;100.00;101204.59;5053629;28;20116;-82
2023/01/20 05:19:04;;;;;;;49.33;18.23;;;;;;;-0.95;100.00;101196.84;5053875;28;20108;-83
2023/01/20 05:21:29;;;;;;;56.58;19.55;;;;;;;-0.97;100.00;101205.66;5052989;28;20028;-82
2023/01/20 05:23:56;;;;;;;51.42;18.67;;;;;;;-0.94;100.00;101200.31;5051915;28;20029;-81
2023/01/20 05:26:22;;;;;;;53.58;18.25;;;;;;;-0.92;100.00;101201.13;5052910;28;20473;-82
2023/01/20 05:28:47;;;;;;;52.78;16.65;;;;;;;-0.90;100.00;101199.31;5053201;28;20033;-81
2023/01/20 05:31:13;;;;;;;51.45;16.95;;;;;;;-0.89;100.00;101199.25;5056902;28;20584;-81
2023/01/20 05:33:38;;;;;;;41.03;15.70;;;;;;;-0.85;100.00;101200.00;5053470;28;20358;-81
2023/01/20 05:36:08;;;;;;;40.20;15.07;;;;;;;-0.85;100.00;101205.22;5052904;28;20396;-86
2023/01/20 05:38:34;;;;;;;33.50;13.13;;;;;;;-0.83;100.00;101199.94;5053168;28;20036;-81
2023/01/20 05:41:05;;;;;;;40.85;13.90;;;;;;;-0.82;100.00;101207.72;5053574;28;20037;-82
2023/01/20 05:43:30;;;;;;;41.97;14.48;;;;;;;-0.83;100.00;101200.78;5052803;28;20083;-82
2023/01/20 05:45:56;;;;;;;49.38;16.17;;;;;;;-0.83;100.00;101200.78;5053462;28;20056;-82
2023/01/20 05:48:22;;;;;;;52.45;17.08;;;;;;;-0.86;100.00;101198.28;5053199;28;20033;-82
2023/01/20 05:50:47;;;;;;;47.58;16.27;;;;;;;-0.87;100.00;101204.41;5053447;28;20389;-82
2023/01/20 05:53:13;;;;;;;45.80;17.42;;;;;;;-0.88;100.00;101202.72;5056535;28;20044;-82
2023/01/20 05:55:38;;;;;;;44.85;17.70;;;;;;;-0.90;100.00;101196.69;5053287;28;20033;-83
2023/01/20 05:58:04;;;;;;;51.78;18.48;;;;;;;-0.91;100.00;101206.31;5053395;28;20044;-83
2023/01/20 06:00:30;;;;;;;49.13;17.38;;;;;;;-0.95;100.00;101209.09;5061606;28;20053;-81
2023/01/20 06:02:55;;;;;;;48.60;18.58;;;;;;;-0.97;100.00;101209.13;5058371;28;20036;-80
2023/01/20 06:05:21;;;;;;;49.22;17.27;;;;;;;-0.98;100.00;101209.19;5053677;28;20025;-82
2023/01/20 06:07:48;;;;;;;53.28;18.63;;;;;;;-1.04;100.00;101210.25;5052724;28;20366;-82
2023/01/20 06:10:14;;;;;;;45.10;17.17;;;;;;;-1.12;100.00;101200.09;5053114;28;20052;-82
2023/01/20 06:12:40;;;;;;;49.95;17.38;;;;;;;-1.19;100.00;101184.72;5055175;28;20029;-81
2023/01/20 06:15:06;;;;;;;43.30;15.82;;;;;;;-1.21;100.00;101187.34;5055909;28;20025;-80
2023/01/20 06:17:32;;;;;;;43.03;16.10;;;;;;;-1.23;100.00;101190.94;5056597;28;20041;-81
2023/01/20 06:19:57;;;;;;;48.50;17.77;;;;;;;-1.21;100.00;101199.56;5055504;28;20106;-82
2023/01/20 06:22:23;;;;;;;50.38;16.17;;;;;;;-1.21;100.00;101204.78;5056538;28;20032;-80
2023/01/20 06:24:48;;;;;;;37.10;15.32;;;;;;;-1.21;100.00;101202.16;5056664;28;20492;-79
2023/01/20 06:27:13;;;;;;;46.47;17.08;;;;;;;-1.21;100.00;101212.63;5055889;28;20033;-80
2023/01/20 06:29:39;;;;;;;38.95;15.07;;;;;;;-1.26;100.00;101220.63;5055429;28;20033;-81
2023/01/20 06:32:04;;;;;;;47.33;16.23;;;;;;;-1.24;100.00;101226.63;5055875;28;20539;-81
2023/01/20 06:34:30;;;;;;;33.47;15.32;;;;;;;-1.20;100.00;101230.00;5056195;28;20378;-81
2023/01/20 06:36:57;;;;;;;41.58;17.48;;;;;;;-1.25;100.00;101220.56;5056407;28;20077;-81
2023/01/20 06:39:22;;;;;;;40.08;15.63;;;;;;;-1.30;100.00;101214.66;5056520;28;20455;-80
2023/01/20 06:41:47;;;;;;;42.33;15.77;;;;;;;-1.32;100.00;101228.66;5055003;28;20052;-81
2023/01/20 06:44:14;;;;;;;41.65;15.63;;;;;;;-1.32;100.00;101229.50;5054789;28;20430;-86
2023/01/20 06:46:39;;;;;;;51.67;16.73;;;;;;;-1.35;100.00;101216.56;5056400;28;20060;-81
2023/01/20 06:49:05;;;;;;;44.33;17.52;;;;;;;-1.34;100.00;101222.66;5055800;28;20048;-81
2023/01/20 06:51:31;;;;;;;43.03;17.40;;;;;;;-1.35;100.00;101224.41;5054779;28;20033;-80
2023/01/20 06:53:56;;;;;;;45.03;17.92;;;;;;;-1.35;100.00;101223.56;5055560;28;20091;-80
2023/01/20 06:56:22;;;;;;;54.53;19.85;;;;;;;-1.32;100.00;101224.28;5055321;28;20029;-80
2023/01/20 06:58:49;;;;;;;45.30;19.15;;;;;;;-1.29;100.00;101221.56;5055860;28;20025;-80
2023/01/20 07:01:20;;;;;;;54.05;20.65;;;;;;;-1.25;100.00;101225.78;5055409;28;20167;-81
2023/01/20 07:03:45;;;;;;;57.15;19.27;;;;;;;-1.21;100.00;101228.28;5056280;28;20383;-80
2023/01/20 07:06:18;;;;;;;55.65;19.60;;;;;;;-1.15;100.00;101226.31;5055643;28;20041;-80
2023/01/20 07:08:45;;;;;;;50.30;19.85;;;;;;;-1.13;100.00;101227.13;5056343;28;20033;-81
2023/01/20 07:11:11;;;;;;;54.10;19.85;;;;;;;-1.10;100.00;101236.59;5055378;28;20056;-81
2023/01/20 07:13:36;;;;;;;55.15;20.15;;;;;;;-1.09;100.00;101240.91;5056675;28;20032;-81
2023/01/20 07:16:03;;;;;;;55.63;19.48;;;;;;;-1.09;100.00;101243.50;5065810;28;20051;-80
2023/01/20 07:18:29;;;;;;;46.03;18.65;;;;;;;-1.11;100.00;101240.97;5056139;28;20062;-79
2023/01/20 07:20:55;;;;;;;48.42;19.80;;;;;;;-1.13;100.00;101237.56;5058165;28;20075;-81
2023/01/20 07:23:21;;;;;;;47.60;19.35;;;;;;;-1.10;100.00;101244.44;5055073;28;20060;-82
2023/01/20 07:25:47;;;;;;;49.95;19.58;;;;;;;-1.10;100.00;101242.66;5055406;28;20036;-81
2023/01/20 07:28:12;;;;;;;48.13;19.65;;;;;;;-1.10;100.00;101241.84;5055105;28;20041;-81
2023/01/20 07:30:38;;;;;;;49.67;21.25;;;;;;;-1.07;100.00;101249.56;5053924;28;20037;-81
2023/01/20 07:33:04;;;;;;;53.30;21.17;;;;;;;-1.07;100.00;101245.19;5054911;28;20112;-81
2023/01/20 07:35:30;;;;;;;47.35;19.88;;;;;;;-1.08;100.00;101243.47;5055532;28;20080;-82
2023/01/20 07:37:55;;;;;;;53.80;20.75;;;;;;;-1.09;100.00;101246.13;5055516;28;20446;-81
2023/01/20 07:40:20;;;;;;;53.30;20.65;;;;;;;-1.08;100.00;101251.28;5053924;28;20043;-84
2023/01/20 07:42:46;;;;;;;51.53;20.45;;;;;;;-1.06;100.00;101269.53;5054991;28;20473;-80
2023/01/20 07:45:11;;;;;;;49.58;20.10;;;;;;;-1.05;100.00;101280.84;5037801;28;20021;-81
2023/01/20 07:47:37;;;;;;;48.97;19.52;;;;;;;-1.04;100.00;101293.84;5054877;28;20040;-80
2023/01/20 07:50:02;;;;;;;50.08;20.48;;;;;;;-1.02;100.00;101306.84;5054922;28;20037;-81
2023/01/20 07:52:28;;;;;;;41.70;18.25;;;;;;;-1.07;100.00;101304.41;5054898;28;20029;-83
2023/01/20 07:54:53;;;;;;;39.08;18.30;;;;;;;-1.12;100.00;101309.78;5054634;28;20032;-84
2023/01/20 07:57:19;;;;;;;38.55;18.50;;;;;;;-1.20;100.00;101311.78;5055511;28;20037;-82
2023/01/20 07:59:44;;;;;;;41.00;17.88;;;;;;;-1.23;100.00;101308.44;5054586;28;20072;-82
2023/01/20 08:02:09;;;;;;;43.25;18.25;;;;;;;-1.29;100.00;101304.28;5053654;28;20056;-81
2023/01/20 08:04:35;;;;;;;42.78;17.98;;;;;;;-1.34;100.00;101311.44;5053659;28;20094;-84
2023/01/20 08:07:00;;;;;;;39.03;18.15;;;;;;;-1.38;100.00;101321.09;5054566;28;20492;-84
2023/01/20 08:09:26;;;;;;;39.08;18.48;;;;;;;-1.42;100.00;101328.19;5054190;28;20060;-82
2023/01/20 08:11:51;;;;;;;37.63;17.92;;;;;;;-1.44;100.00;101335.19;5055385;28;20089;-83
2023/01/20 08:14:17;;;;;;;41.28;18.65;;;;;;;-1.44;100.00;101347.41;5053652;28;20126;-80
2023/01/20 08:16:42;;;;;;;31.55;17.05;;;;;;;-1.47;100.00;101343.13;5052654;28;20033;-80
2023/01/20 08:19:07;;;;;;;42.10;18.10;;;;;;;-1.53;100.00;101335.50;5053615;28;20036;-77
2023/01/20 08:21:33;;;;;;;41.92;18.95;;;;;;;-1.56;100.00;101345.19;5053563;28;20466;-80
2023/01/20 08:24:01;;;;;;;42.35;18.35;;;;;;;-1.62;100.00;101344.47;5053779;28;20025;-79
2023/01/20 08:26:29;;;;;;;47.50;19.23;;;;;;;-1.61;100.00;101340.13;5054032;28;20043;-81
2023/01/20 08:29:01;;;;;;;51.67;20.55;;;;;;;-1.62;100.00;101347.09;5053612;28;20037;-80
2023/01/20 08:31:26;;;;;;;;;;;;;;;-1.60;100.00;101341.81;5054230;28;20033;-80
2023/01/20 08:33:55;;;;;;;42.67;19.85;;;;;;;-1.59;100.00;101340.91;5052457;28;19913;-80
2023/01/20 08:36:24;;;;;;;46.67;20.35;;;;;;;-1.57;100.00;101351.31;5052580;28;20087;-79
2023/01/20 08:38:49;;;;;;;51.70;20.85;;;;;;;-1.58;100.00;101345.25;5053954;28;20033;-80
2023/01/20 08:41:22;;;;;;;52.75;21.55;;;;;;;-1.57;100.00;101339.09;5053277;28;20040;-81
2023/01/20 08:43:49;;;;;;;59.50;22.55;;;;;;;-1.56;100.00;101325.16;5054169;28;20028;-83
2023/01/20 08:46:17;;;;;;;51.83;22.60;;;;;;;-1.57;100.00;101320.84;5052291;28;20044;-83
2023/01/20 08:48:43;;;;;;;57.20;22.83;;;;;;;-1.58;100.00;101321.75;5054065;28;20087;-81
2023/01/20 08:51:15;;;;;;;58.75;23.65;;;;;;;-1.56;100.00;101313.88;5054283;28;20029;-83
2023/01/20 08:53:41;;;;;;;58.75;24.00;;;;;;;-1.51;100.00;101318.03;5053996;28;20120;-79
2023/01/20 08:56:07;;;;;;;52.08;21.95;;;;;;;-1.48;100.00;101324.91;5054713;28;20067;-85
2023/01/20 08:58:33;;;;;;;61.38;23.70;;;;;;;-1.46;100.00;101328.34;5055552;28;20055;-83
2023/01/20 09:00:58;;;;;;;58.45;22.60;;;;;;;-1.42;100.00;101333.41;5054775;28;20457;-79
2023/01/20 09:03:25;;;;;;;50.75;23.73;;;;;;;-1.39;100.00;101337.66;5035766;28;20067;-85
2023/01/20 09:05:50;;;;;;;59.05;23.38;;;;;;;-1.36;100.00;101345.38;5054600;28;20029;-78
2023/01/20 09:08:16;;;;;;;61.75;24.48;;;;;;;-1.33;100.00;101345.31;5052106;28;20370;-82
2023/01/20 09:10:43;;;;;;;54.20;23.67;;;;;;;-1.30;100.00;101336.50;5053692;28;20088;-81
2023/01/20 09:13:08;;;;;;;61.15;24.17;;;;;;;-1.26;100.00;101338.13;5053019;28;20040;-80
2023/01/20 09:15:33;;;;;;;54.92;24.15;;;;;;;-1.23;100.00;101345.84;5054791;28;20036;-80
2023/01/20 09:17:59;;;;;;;59.83;24.27;;;;;;;-1.19;100.00;101341.41;5054664;28;20048;-87
2023/01/20 09:20:26;;;;;;;57.28;24.42;;;;;;;-1.19;100.00;101355.28;5036228;28;20055;-83
2023/01/20 09:22:51;;;;;;;55.40;23.40;;;;;;;-1.19;100.00;101357.06;5053305;28;20437;-83
2023/01/20 09:25:17;;;;;;;55.50;24.88;;;;;;;-1.19;100.00;101357.91;5055310;28;20057;-84
2023/01/20 09:27:42;;;;;;;58.25;25.45;;;;;;;-1.18;100.00;101362.25;5053157;28;20087;-85
2023/01/20 09:30:08;;;;;;;52.13;23.88;;;;;;;-1.17;100.00;101363.91;5053956;28;20068;-78
2023/01/20 09:32:34;;;;;;;54.85;24.58;;;;;;;-1.16;100.00;101370.84;5053003;28;20029;-83
2023/01/20 09:34:59;;;;;;;56.92;24.92;;;;;;;-1.16;100.00;101370.84;5055389;28;20051;-84
2023/01/20 09:43:54;;;;;;;54.30;23.27;;;;;;;-1.02;100.00;101375.63;5053203;28;20382;-77
2023/01/20 09:46:19;;;;;;;60.33;24.00;;;;;;;-0.95;100.00;101371.06;5053894;28;20029;-79
2023/01/20 09:55:15;;;;;;;46.67;20.77;;;;;;;-0.55;100.00;101380.13;5058142;28;20497;-79
2023/01/20 09:57:47;;;;;;;48.63;20.80;;;;;;;-0.46;100.00;101369.34;5058376;28;20029;-78
2023/01/20 10:00:24;;;;;;;52.83;22.02;;;;;;;-0.33;100.00;101377.56;5059074;28;20059;-80
2023/01/20 10:02:56;;;;;;;45.53;21.70;;;;;;;-0.23;100.00;101378.94;5061177;28;20025;-78
2023/01/20 10:05:34;;;;;;;47.47;20.02;;;;;;;-0.18;100.00;101386.63;5058415;28;20033;-83
2023/01/20 10:08:17;;;;;;;40.58;19.65;;;;;;;-0.20;100.00;101380.59;5066652;28;20056;-80
2023/01/20 10:10:53;;;;;;;40.47;18.38;;;;;;;-0.22;100.00;101383.28;5071688;28;20049;-79
2023/01/20 10:13:25;;;;;;;40.03;18.55;;;;;;;-0.18;100.00;101391.84;5066969;28;20029;-80
2023/01/20 10:15:55;;;;;;;32.38;16.50;;;;;;;-0.22;100.00;101385.03;5061685;28;20044;-77
2023/01/20 10:18:28;;;;;;;32.47;16.70;;;;;;;-0.23;100.00;101384.19;5059393;28;20075;-78
2023/01/20 10:21:26;;;;;;;36.38;16.30;;;;;;;-0.22;100.00;101387.66;5062063;28;20056;-87
2023/01/20 10:23:57;;;;;;;35.78;15.68;;;;;;;-0.16;100.00;101387.44;5055441;28;20056;-80
2023/01/20 10:26:31;;;;;;;30.33;15.82;;;;;;;-0.08;100.00;101380.13;5057523;28;20143;-82
2023/01/20 10:29:00;;;;;;;28.65;15.68;;;;;;;0.01;100.00;101385.94;5056873;28;20033;-81
2023/01/20 10:31:31;;;;;;;30.75;16.25;;;;;;;0.10;100.00;101372.50;5057032;28;20029;-83
2023/01/20 10:34:17;;;;;;;37.85;15.80;;;;;;;0.27;100.00;101375.34;5057362;28;20104;-83
2023/01/20 10:36:49;;;;;;;33.22;15.50;;;;;;;0.56;100.00;101377.72;5057433;28;20036;-80
2023/01/20 10:39:45;;;;;;;34.08;16.15;;;;;;;0.90;100.00;101371.09;5056399;28;20071;-81
2023/01/20 10:42:14;;;;;;;32.00;15.57;;;;;;;1.18;100.00;101378.63;5057079;28;20376;-83
2023/01/20 10:44:40;;;;;;;29.70;15.00;;;;;;;1.34;100.00;101371.81;5056929;28;20067;-81
2023/01/20 10:47:17;;;;;;;33.15;14.85;;;;;;;1.50;100.00;101377.25;5054707;28;20029;-83
2023/01/20 10:49:58;;;;;;;27.27;14.23;;;;;;;1.51;100.00;101372.88;5055785;28;20033;-82
2023/01/20 10:52:45;;;;;;;31.90;13.23;;;;;;;1.38;100.00;101386.50;5054915;28;20094;-81
2023/01/20 10:55:17;;;;;;;32.05;13.65;;;;;;;1.25;100.00;101374.84;5056498;28;20033;-80
2023/01/20 10:57:43;;;;;;;22.75;12.90;;;;;;;1.05;100.00;101381.78;5055514;28;20037;-82
2023/01/20 11:00:30;;;;;;;21.80;12.05;;;;;;;0.94;100.00;101384.03;5056476;28;20376;-81
2023/01/20 11:02:58;;;;;;;22.13;11.93;;;;;;;0.86;100.00;101378.22;5056239;28;20104;-80
2023/01/20 11:05:27;;;;;;;22.45;11.73;;;;;;;0.77;100.00;101371.59;5054210;28;20028;-79
2023/01/20 11:07:55;;;;;;;19.77;11.32;;;;;;;0.74;100.00;101363.03;5055782;28;20071;-79
2023/01/20 11:10:23;;;;;;;25.88;11.32;;;;;;;0.73;100.00;101364.78;5055506;28;20049;-79
2023/01/20 11:12:54;;;;;;;26.02;10.68;;;;;;;0.77;100.00;101373.38;5056295;28;20033;-79
2023/01/20 11:15:24;;;;;;;22.48;9.07;;;;;;;0.85;100.00;101381.75;5055863;28;20029;-79
2023/01/20 11:18:14;;;;;;;13.45;7.40;;;;;;;0.93;100.00;101376.22;5054331;28;20025;-79
2023/01/20 11:20:48;;;;;;;23.80;6.10;;;;;;;1.04;100.00;101369.59;5055318;28;20035;-79
2023/01/20 11:23:37;;;;;;;21.08;4.68;;;;;;;1.15;100.00;101377.03;5056478;28;20029;-79